Time;durP1;ratioP1;P1;durP2;ratioP2;P2;SDS_P1;SDS_P2;PMS_P1;PMS_P2;Temp;Humidity;BMP_temperature;BMP_pressure;BME280_temperature;BME280_humidity;BME280_pressure;Samples;Min_cycle;Max_cycle;Signal;HPM_P1;HPM_P2
2021/08/06 00:00:11;;;;;;;0.40;0.40;;;;;;;28.63;37.03;95842.19;5047112;28;20286;-74
2021/08/06 00:02:37;;;;;;;0.65;0.57;;;;;;;28.65;37.09;95845.53;5050913;28;20027;-74
2021/08/06 00:05:03;;;;;;;1.15;0.20;;;;;;;28.63;37.02;95842.19;5055967;28;20249;-73
2021/08/06 00:07:28;;;;;;;1.55;0.35;;;;;;;28.63;36.94;95841.34;5036668;28;20063;-75
2021/08/06 00:09:54;;;;;;;0.98;0.40;;;;;;;28.62;37.09;95845.78;5033202;28;20055;-75
2021/08/06 00:12:19;;;;;;;0.40;0.30;;;;;;;28.62;36.86;95845.78;5025193;28;20035;-76
2021/08/06 00:14:45;;;;;;;0.93;0.40;;;;;;;28.61;37.00;95838.00;5059761;28;20035;-74
2021/08/06 00:17:10;;;;;;;1.17;0.40;;;;;;;28.63;36.97;95847.47;5039048;28;20475;-76
2021/08/06 00:19:36;;;;;;;0.77;0.40;;;;;;;28.62;37.01;95851.06;5049384;28;20631;-76
2021/08/06 00:22:01;;;;;;;0.45;0.30;;;;;;;28.61;36.91;95844.13;5040725;28;20101;-75
2021/08/06 00:24:27;;;;;;;0.93;0.30;;;;;;;28.62;37.02;95840.50;5058035;28;20131;-74
2021/08/06 00:26:52;;;;;;;0.77;0.43;;;;;;;28.62;37.01;95837.88;5057094;28;20047;-75
2021/08/06 00:29:18;;;;;;;1.88;0.57;;;;;;;28.62;36.83;95837.88;5040099;28;20420;-76
2021/08/06 00:31:43;;;;;;;0.60;0.35;;;;;;;28.61;36.85;95838.00;5055701;28;20041;-76
2021/08/06 00:34:11;;;;;;;2.65;0.50;;;;;;;-148.56;100.00;61375.16;5024126;28;20032;-74
2021/08/06 00:37:34;;;;;;;2.42;0.60;;;;;;;-148.56;100.00;61375.16;5052573;28;20494;-77
2021/08/06 00:40:00;;;;;;;1.75;0.40;;;;;;;28.61;36.74;95828.31;5056136;28;20036;-75
2021/08/06 00:42:25;;;;;;;0.77;0.47;;;;;;;28.60;37.18;95826.59;5056822;28;20071;-75
2021/08/06 00:44:50;;;;;;;1.70;0.43;;;;;;;28.61;36.80;95816.91;5055396;28;20035;-75
2021/08/06 00:47:23;;;;;;;1.15;0.50;;;;;;;28.61;36.80;95816.91;5039999;28;20020;-75
2021/08/06 00:49:49;;;;;;;1.17;0.60;;;;;;;28.61;36.59;95817.75;5059306;28;20046;-75
2021/08/06 00:52:14;;;;;;;3.40;0.52;;;;;;;28.58;36.72;95818.00;5025612;28;20032;-73
2021/08/06 00:54:40;;;;;;;0.73;0.50;;;;;;;28.56;37.10;95804.94;5047723;28;20025;-76
2021/08/06 00:58:02;;;;;;;0.68;0.50;;;;;;;-148.56;100.00;61375.16;5025466;28;20024;-76
2021/08/06 01:01:26;;;;;;;0.50;0.50;;;;;;;-148.56;100.00;61375.16;5062084;28;20033;-76
2021/08/06 01:04:09;;;;;;;1.55;0.35;;;;;;;28.56;37.10;95804.94;5059247;28;20025;-72
2021/08/06 01:06:37;;;;;;;0.40;0.40;;;;;;;28.59;36.67;95806.50;5054885;28;20097;-75
2021/08/06 01:09:26;;;;;;;1.55;0.50;;;;;;;28.58;36.86;95807.47;5053910;28;20035;-75
2021/08/06 01:11:53;;;;;;;0.43;0.40;;;;;;;28.57;36.83;95805.78;5058014;28;20128;-75
2021/08/06 01:14:20;;;;;;;2.05;0.52;;;;;;;28.56;36.85;95806.72;5051366;28;20103;-75
2021/08/06 01:16:46;;;;;;;0.50;0.40;;;;;;;28.56;36.85;95812.00;5025338;28;20297;-74
2021/08/06 01:19:43;;;;;;;2.33;0.45;;;;;;;28.55;36.69;95807.69;5033514;28;20613;-75
2021/08/06 01:22:41;;;;;;;1.50;0.52;;;;;;;28.55;36.83;95805.06;5055046;28;20033;-75
2021/08/06 01:25:10;;;;;;;0.88;0.60;;;;;;;28.54;36.89;95801.56;5073034;28;20521;-76
2021/08/06 01:27:35;;;;;;;1.08;0.38;;;;;;;28.54;36.63;95806.03;5057457;28;20040;-77
2021/08/06 01:30:03;;;;;;;1.13;0.47;;;;;;;28.53;36.61;95799.91;5038069;28;20064;-74
2021/08/06 01:32:30;;;;;;;0.52;0.40;;;;;;;28.55;36.74;95807.69;5039835;28;20037;-76
2021/08/06 01:34:55;;;;;;;3.00;0.30;;;;;;;28.52;36.63;95807.94;5053292;28;20414;-75
2021/08/06 01:37:20;;;;;;;2.50;0.47;;;;;;;28.53;36.65;95807.00;5059405;28;20028;-75
2021/08/06 01:39:46;;;;;;;0.73;0.50;;;;;;;28.52;36.67;95802.66;5027511;28;20306;-76
2021/08/06 01:42:31;;;;;;;0.60;0.40;;;;;;;28.53;36.75;95807.00;5048078;28;20028;-74
2021/08/06 01:44:56;;;;;;;0.85;0.40;;;;;;;28.53;36.66;95804.34;5037072;28;20487;-76
2021/08/06 01:47:48;;;;;;;1.05;0.50;;;;;;;28.52;36.80;95805.28;5051995;28;20340;-72
2021/08/06 01:50:17;;;;;;;0.65;0.40;;;;;;;28.53;36.67;95809.63;5054768;28;20047;-74
2021/08/06 01:52:50;;;;;;;0.55;0.40;;;;;;;28.52;36.53;95802.66;5041199;28;20505;-73
2021/08/06 01:55:16;;;;;;;0.82;0.40;;;;;;;28.52;36.69;95803.50;5036715;28;20511;-75
2021/08/06 01:57:56;;;;;;;0.85;0.28;;;;;;;28.52;36.69;95803.50;5053804;28;20434;-75
2021/08/06 02:00:21;;;;;;;1.25;0.60;;;;;;;28.54;36.55;95795.47;5040732;28;20506;-75
2021/08/06 02:02:47;;;;;;;1.75;0.40;;;;;;;28.52;36.26;95797.38;5055384;28;20033;-72
2021/08/06 02:06:11;;;;;;;1.77;0.40;;;;;;;-148.56;100.00;61375.16;5035346;28;20033;-75
2021/08/06 02:09:35;;;;;;;0.60;0.45;;;;;;;-148.56;100.00;61375.16;5047017;28;20028;-75
2021/08/06 02:13:01;;;;;;;0.82;0.50;;;;;;;-148.56;100.00;61375.16;5036327;28;20155;-75
2021/08/06 02:15:27;;;;;;;4.53;0.50;;;;;;;28.55;36.43;95791.88;5059985;28;20063;-75
2021/08/06 02:17:52;;;;;;;0.68;0.40;;;;;;;28.50;36.57;95792.25;5058272;28;20494;-77
2021/08/06 02:20:18;;;;;;;1.98;0.50;;;;;;;28.50;36.62;95788.78;5037663;28;20062;-76
2021/08/06 02:23:27;;;;;;;3.63;0.38;;;;;;;;;;5036776;28;20025;-74
2021/08/06 02:25:54;;;;;;;0.32;0.30;;;;;;;28.49;36.56;95779.22;5059900;28;20126;-75
2021/08/06 02:28:20;;;;;;;1.65;0.38;;;;;;;28.47;36.43;95779.31;5020399;28;20543;-76
2021/08/06 02:30:46;;;;;;;1.55;0.47;;;;;;;28.48;36.82;95774.88;5050889;28;20031;-74
2021/08/06 02:33:11;;;;;;;0.73;0.40;;;;;;;28.43;36.57;95767.34;5049593;28;20039;-75
2021/08/06 02:35:36;;;;;;;1.95;0.50;;;;;;;28.46;36.73;95776.81;5035562;28;20025;-75
2021/08/06 02:39:00;;;;;;;1.40;0.50;;;;;;;-148.56;100.00;61375.16;5057529;28;20439;-75
2021/08/06 02:41:27;;;;;;;2.05;0.50;;;;;;;28.46;36.67;95777.66;5051892;28;20037;-74
2021/08/06 02:43:52;;;;;;;3.47;0.52;;;;;;;28.46;36.47;95771.53;5057538;28;20351;-72
2021/08/06 02:46:18;;;;;;;1.40;0.50;;;;;;;28.47;36.51;95778.47;5050631;28;20033;-76
2021/08/06 02:48:43;;;;;;;1.40;0.57;;;;;;;28.45;36.49;95772.50;5039649;28;20036;-76
2021/08/06 02:51:08;;;;;;;1.13;0.47;;;;;;;28.44;36.56;95769.03;5043827;28;20267;-76
2021/08/06 02:53:34;;;;;;;0.20;0.20;;;;;;;28.47;36.62;95770.56;5042462;28;20097;-73
2021/08/06 02:55:59;;;;;;;1.42;0.60;;;;;;;28.45;36.51;95770.69;5058370;28;20364;-74
2021/08/06 02:58:25;;;;;;;4.53;0.85;;;;;;;28.44;36.61;95769.03;5058695;28;20020;-76
2021/08/06 03:00:50;;;;;;;0.40;0.40;;;;;;;28.43;36.59;95760.31;5053085;28;20027;-77
2021/08/06 03:03:16;;;;;;;2.20;0.43;;;;;;;28.45;36.52;95767.25;5032474;28;20035;-74
2021/08/06 03:05:41;;;;;;;1.25;0.43;;;;;;;28.43;36.37;95765.56;5056817;28;20039;-76
2021/08/06 03:08:06;;;;;;;2.25;0.47;;;;;;;28.41;36.78;95762.22;5052268;28;20032;-75
2021/08/06 03:10:33;;;;;;;1.05;0.50;;;;;;;28.43;36.46;95762.94;5056563;28;20323;-76
2021/08/06 03:12:58;;;;;;;2.70;0.68;;;;;;;28.42;36.52;95755.97;5038723;28;20059;-74
2021/08/06 03:15:24;;;;;;;1.83;0.68;;;;;;;28.38;36.60;95754.53;5053688;28;20028;-74
2021/08/06 03:17:49;;;;;;;0.75;0.30;;;;;;;28.43;36.50;95768.19;5057159;28;20129;-76
2021/08/06 03:20:16;;;;;;;1.67;0.57;;;;;;;28.43;36.38;95755.03;5051303;28;20024;-76
2021/08/06 03:22:41;;;;;;;0.65;0.40;;;;;;;28.43;36.61;95744.50;5047650;28;20147;-75
2021/08/06 03:25:10;;;;;;;0.50;0.50;;;;;;;28.43;36.56;95735.75;5034030;28;20225;-74
2021/08/06 03:27:36;;;;;;;0.55;0.40;;;;;;;28.42;36.52;95734.88;5035772;28;20483;-76
2021/08/06 03:30:01;;;;;;;2.17;0.70;;;;;;;28.41;36.33;95732.38;5053327;28;20028;-73
2021/08/06 03:32:26;;;;;;;1.02;0.80;;;;;;;28.40;36.35;95722.81;5034652;28;20028;-75
2021/08/06 03:34:54;;;;;;;1.15;0.40;;;;;;;28.41;36.40;95733.22;5034882;28;20068;-73
2021/08/06 03:37:20;;;;;;;2.05;0.45;;;;;;;28.40;36.45;95734.19;5055350;28;20036;-74
2021/08/06 03:39:45;;;;;;;0.77;0.60;;;;;;;28.40;36.41;95731.56;5034622;28;20031;-74
2021/08/06 03:42:11;;;;;;;2.10;0.50;;;;;;;28.40;36.30;95728.06;5047417;28;20045;-74
2021/08/06 03:44:36;;;;;;;0.40;0.40;;;;;;;28.38;36.58;95728.19;5040516;28;20032;-74
2021/08/06 03:47:02;;;;;;;0.73;0.40;;;;;;;28.39;36.45;95729.88;5053041;28;20024;-75
2021/08/06 03:49:28;;;;;;;0.50;0.43;;;;;;;28.40;36.14;95736.81;5065362;28;20040;-72
2021/08/06 03:51:53;;;;;;;0.30;0.30;;;;;;;28.40;36.38;95741.25;5064360;28;20016;-75
2021/08/06 03:54:18;;;;;;;1.20;0.60;;;;;;;28.39;36.34;95732.53;5063533;28;20039;-73
2021/08/06 03:56:44;;;;;;;2.30;0.57;;;;;;;28.39;36.11;95735.16;5062376;28;20411;-76
2021/08/06 03:59:09;;;;;;;1.90;0.40;;;;;;;28.35;36.27;95723.19;5062639;28;20098;-75
2021/08/06 04:01:34;;;;;;;0.30;0.30;;;;;;;28.37;36.33;95731.78;5056079;28;20020;-75
2021/08/06 04:04:00;;;;;;;0.73;0.57;;;;;;;28.37;36.29;95730.97;5061008;28;20483;-73
2021/08/06 04:06:25;;;;;;;0.85;0.50;;;;;;;28.38;36.45;95733.47;5044513;28;20044;-75
2021/08/06 04:08:51;;;;;;;0.95;0.47;;;;;;;28.37;36.50;95736.25;5061910;28;20098;-75
2021/08/06 04:11:16;;;;;;;2.33;0.50;;;;;;;28.36;36.48;95724.84;5062964;28;20063;-74
2021/08/06 04:13:42;;;;;;;0.93;0.60;;;;;;;28.36;36.55;95727.50;5062254;28;20050;-76
2021/08/06 04:16:07;;;;;;;2.55;0.50;;;;;;;28.36;36.58;95727.50;5053898;28;20506;-73
2021/08/06 04:18:33;;;;;;;2.65;0.57;;;;;;;28.37;36.47;95736.25;5049092;28;20494;-76
2021/08/06 04:20:59;;;;;;;0.82;0.60;;;;;;;28.36;36.43;95739.81;5064976;28;20017;-73
2021/08/06 04:23:25;;;;;;;1.08;0.50;;;;;;;28.36;36.46;95748.56;5060554;28;20025;-76
2021/08/06 04:25:50;;;;;;;1.42;0.57;;;;;;;28.35;36.60;95741.63;5060414;28;20043;-74
2021/08/06 04:28:16;;;;;;;0.47;0.43;;;;;;;28.36;36.37;95751.19;5044703;28;20025;-75
2021/08/06 04:30:41;;;;;;;0.95;0.40;;;;;;;28.36;36.67;95751.19;5037882;28;20059;-76
2021/08/06 04:33:07;;;;;;;0.65;0.50;;;;;;;28.36;36.53;95761.75;5057583;28;20028;-75
2021/08/06 04:35:32;;;;;;;1.42;0.50;;;;;;;28.35;36.50;95757.44;5041444;28;20044;-74
2021/08/06 04:37:58;;;;;;;1.23;0.60;;;;;;;28.35;36.56;95754.81;5059851;28;20122;-74
2021/08/06 04:40:24;;;;;;;0.63;0.60;;;;;;;28.35;36.37;95754.81;5053059;28;20025;-75
2021/08/06 04:42:49;;;;;;;4.72;0.75;;;;;;;28.37;36.50;95758.13;5061945;28;20581;-74
2021/08/06 04:45:15;;;;;;;0.82;0.60;;;;;;;28.35;36.35;95760.06;5056029;28;20033;-74
2021/08/06 04:47:48;;;;;;;3.03;0.70;;;;;;;28.36;36.47;95764.38;5040920;28;20039;-74
2021/08/06 04:50:14;;;;;;;1.00;0.55;;;;;;;28.36;36.50;95761.75;5060414;28;20029;-75
2021/08/06 04:52:40;;;;;;;1.75;0.65;;;;;;;28.36;36.32;95756.47;5034205;28;20025;-75
2021/08/06 04:55:06;;;;;;;1.13;0.60;;;;;;;28.36;36.64;95761.75;5022069;28;20130;-75
2021/08/06 04:57:31;;;;;;;1.45;0.65;;;;;;;28.36;36.54;95767.00;5047761;28;20080;-76
2021/08/06 04:59:56;;;;;;;0.40;0.40;;;;;;;28.35;36.58;95760.06;5053006;28;20037;-75
2021/08/06 05:02:22;;;;;;;1.05;0.57;;;;;;;28.36;36.57;95768.78;5035420;28;20033;-76
2021/08/06 05:04:47;;;;;;;1.00;0.55;;;;;;;28.34;36.73;95763.66;5065964;28;20032;-74
2021/08/06 05:07:17;;;;;;;1.58;0.65;;;;;;;28.35;36.57;95765.34;5057532;28;20275;-75
2021/08/06 05:09:43;;;;;;;2.88;0.60;;;;;;;28.34;36.87;95771.56;5042250;28;20040;-74
2021/08/06 05:12:08;;;;;;;3.60;0.60;;;;;;;28.34;36.67;95770.72;5051940;28;20396;-76
2021/08/06 05:14:34;;;;;;;2.00;0.50;;;;;;;28.33;36.60;95769.88;5044922;28;20106;-76
2021/08/06 05:16:59;;;;;;;5.03;0.70;;;;;;;28.34;36.60;95762.81;5076474;28;20020;-76
2021/08/06 05:19:30;;;;;;;1.55;0.60;;;;;;;28.34;36.60;95762.81;5026601;28;20101;-74
2021/08/06 05:21:55;;;;;;;1.20;0.80;;;;;;;28.33;36.60;95754.06;5060270;28;20411;-73
2021/08/06 05:24:21;;;;;;;4.15;0.90;;;;;;;28.32;36.71;95749.78;5053003;28;20531;-74
2021/08/06 05:26:46;;;;;;;1.52;0.60;;;;;;;28.32;36.82;95749.78;5039045;28;20068;-73
2021/08/06 05:29:12;;;;;;;1.40;0.65;;;;;;;28.31;36.61;95742.84;5057614;28;20435;-76
2021/08/06 05:31:37;;;;;;;2.30;0.70;;;;;;;28.30;36.92;95741.16;5041402;28;20519;-75
2021/08/06 05:34:02;;;;;;;1.30;0.73;;;;;;;28.31;36.82;95737.56;5048220;28;20040;-76
2021/08/06 05:36:28;;;;;;;1.70;0.65;;;;;;;28.30;36.76;95747.25;5034442;28;20033;-75
2021/08/06 05:38:53;;;;;;;1.63;0.75;;;;;;;28.31;36.93;95748.09;5062632;28;20016;-73
2021/08/06 05:41:19;;;;;;;2.05;0.70;;;;;;;28.30;36.91;95746.44;5033338;28;20844;-76
2021/08/06 05:43:44;;;;;;;1.05;0.70;;;;;;;28.30;36.87;95757.78;5055922;28;20601;-74
2021/08/06 05:46:10;;;;;;;2.72;0.60;;;;;;;28.30;36.70;95756.97;5050098;28;20032;-75
2021/08/06 05:48:35;;;;;;;1.23;0.75;;;;;;;28.29;36.78;95753.50;5035659;28;20039;-75
2021/08/06 05:51:01;;;;;;;2.38;0.70;;;;;;;28.26;37.05;95748.47;5055477;28;20432;-75
2021/08/06 05:53:26;;;;;;;2.70;0.60;;;;;;;28.30;36.74;95762.25;5060093;28;20541;-74
2021/08/06 05:55:51;;;;;;;2.08;0.63;;;;;;;28.29;37.05;95756.13;5034606;28;20495;-74
2021/08/06 05:58:17;;;;;;;1.38;0.73;;;;;;;28.29;36.97;95750.84;5033557;28;20403;-74
2021/08/06 06:00:42;;;;;;;1.65;0.80;;;;;;;28.30;36.96;95744.63;5057687;28;20419;-74
2021/08/06 06:03:08;;;;;;;0.93;0.45;;;;;;;28.30;36.87;95759.63;5059788;28;20025;-74
2021/08/06 06:05:33;;;;;;;1.67;0.80;;;;;;;28.29;36.89;95766.66;5059106;28;20698;-76
2021/08/06 06:07:58;;;;;;;1.75;0.80;;;;;;;28.29;36.92;95774.56;5052080;28;20492;-74
2021/08/06 06:10:24;;;;;;;0.70;0.50;;;;;;;28.30;36.93;95772.78;5053857;28;20028;-73
2021/08/06 06:12:49;;;;;;;1.77;0.80;;;;;;;28.29;36.73;95776.34;5059503;28;20024;-75
2021/08/06 06:15:15;;;;;;;1.38;0.90;;;;;;;28.29;36.87;95774.56;5039756;28;20032;-75
2021/08/06 06:17:40;;;;;;;1.55;0.82;;;;;;;28.28;36.83;95774.69;5032706;28;20055;-73
2021/08/06 06:20:06;;;;;;;2.67;0.80;;;;;;;28.29;36.98;95777.19;5057753;28;20061;-75
2021/08/06 06:22:32;;;;;;;0.88;0.65;;;;;;;28.29;36.78;95777.19;5054861;28;20392;-74
2021/08/06 06:24:57;;;;;;;1.30;0.82;;;;;;;28.30;36.86;95775.41;5041911;28;20032;-76
2021/08/06 06:27:23;;;;;;;3.17;1.30;;;;;;;28.29;36.97;95774.56;5058051;28;20036;-75
2021/08/06 06:29:48;;;;;;;2.00;0.75;;;;;;;28.31;37.05;95771.81;5049782;28;20043;-75
2021/08/06 06:32:13;;;;;;;2.25;1.05;;;;;;;28.30;37.03;95768.34;5060121;28;20017;-77
2021/08/06 06:34:39;;;;;;;9.10;1.67;;;;;;;28.32;37.17;95770.84;5048582;28;21609;-76
2021/08/06 06:37:04;;;;;;;10.43;2.85;;;;;;;28.31;37.10;95763.91;5059710;28;20029;-73
2021/08/06 06:39:30;;;;;;;13.15;2.55;;;;;;;28.28;37.00;95765.00;5056163;28;20043;-76
2021/08/06 06:41:55;;;;;;;10.85;2.80;;;;;;;28.28;37.23;95756.25;5036163;28;20169;-76
2021/08/06 06:44:20;;;;;;;11.13;3.25;;;;;;;28.24;37.21;95754.78;5043312;28;20035;-76
2021/08/06 06:46:46;;;;;;;9.85;2.42;;;;;;;28.21;37.43;95753.22;5044075;28;20180;-76
2021/08/06 06:49:14;;;;;;;6.75;2.25;;;;;;;28.22;37.37;95754.09;5048784;28;20020;-73
2021/08/06 06:51:39;;;;;;;7.32;2.20;;;;;;;28.23;37.66;95766.28;5020349;28;20032;-75
2021/08/06 06:54:05;;;;;;;5.55;1.70;;;;;;;28.22;37.58;95765.44;5053691;28;20090;-78
2021/08/06 06:56:30;;;;;;;8.82;2.00;;;;;;;28.22;37.55;95777.78;5022588;28;20021;-78
2021/08/06 06:58:56;;;;;;;7.10;1.92;;;;;;;28.23;37.65;95779.47;5021611;28;20028;-76
2021/08/06 07:01:21;;;;;;;11.55;2.53;;;;;;;28.23;37.76;95782.94;5048177;28;20032;-78
2021/08/06 07:03:47;;;;;;;6.40;2.25;;;;;;;28.24;37.79;95781.13;5035118;28;20036;-78
2021/08/06 07:06:12;;;;;;;5.05;1.92;;;;;;;28.23;37.60;95771.56;5051917;28;20407;-78
2021/08/06 07:08:39;;;;;;;5.90;2.00;;;;;;;28.21;37.78;95778.72;5031365;28;20032;-78
2021/08/06 07:11:05;;;;;;;7.45;1.95;;;;;;;28.25;37.79;95782.78;5035461;28;20063;-79
2021/08/06 07:13:31;;;;;;;6.68;2.05;;;;;;;28.20;37.96;95777.91;5042156;28;20024;-77
2021/08/06 07:15:56;;;;;;;5.95;1.90;;;;;;;28.22;37.85;95775.16;5043132;28;20024;-78
2021/08/06 07:18:22;;;;;;;5.15;1.80;;;;;;;28.22;37.88;95783.88;5046559;28;20029;-78
2021/08/06 07:20:47;;;;;;;6.90;1.90;;;;;;;28.22;38.05;95785.69;5053856;28;20028;-77
2021/08/06 07:23:13;;;;;;;8.25;2.05;;;;;;;28.22;38.19;95790.97;5057707;28;20062;-78
2021/08/06 07:25:38;;;;;;;7.63;2.10;;;;;;;28.21;38.04;95790.13;5038414;28;20032;-77
2021/08/06 07:28:04;;;;;;;11.25;1.90;;;;;;;28.21;37.94;95805.06;5050610;28;20035;-77
2021/08/06 07:30:29;;;;;;;8.77;2.00;;;;;;;28.22;38.22;95806.78;5036706;28;20047;-79
2021/08/06 07:32:55;;;;;;;4.10;1.92;;;;;;;28.22;38.28;95804.94;5043441;28;20037;-76
2021/08/06 07:35:21;;;;;;;5.55;1.88;;;;;;;28.21;38.39;95820.88;5057701;28;20029;-77
2021/08/06 07:37:47;;;;;;;6.68;1.65;;;;;;;28.24;38.31;95820.63;5056949;28;20032;-76
2021/08/06 07:40:13;;;;;;;4.28;1.85;;;;;;;28.23;38.30;95824.25;5039508;28;20515;-79
2021/08/06 07:42:38;;;;;;;8.30;1.95;;;;;;;28.23;38.31;95834.78;5049816;28;20032;-77
2021/08/06 07:45:04;;;;;;;7.35;1.70;;;;;;;28.24;38.54;95841.72;5040177;28;20537;-78
2021/08/06 07:47:30;;;;;;;2.65;1.35;;;;;;;28.24;38.50;95844.34;5032058;28;20036;-78
2021/08/06 07:49:55;;;;;;;5.55;1.52;;;;;;;28.25;38.29;95848.66;5034868;28;20028;-79
2021/08/06 07:52:21;;;;;;;5.30;1.58;;;;;;;28.24;38.30;95846.97;5053140;28;20854;-78
2021/08/06 07:54:47;;;;;;;3.20;1.27;;;;;;;28.25;38.53;95853.91;5033970;28;20036;-77
2021/08/06 07:57:13;;;;;;;3.17;1.52;;;;;;;28.24;38.47;95849.63;5048438;28;20028;-76
2021/08/06 07:59:39;;;;;;;4.53;1.50;;;;;;;28.24;38.48;95858.38;5051556;28;20037;-77
2021/08/06 08:02:05;;;;;;;2.75;1.20;;;;;;;28.23;38.58;95850.59;5035758;28;20511;-76
2021/08/06 08:04:32;;;;;;;1.63;1.00;;;;;;;28.23;38.47;95850.59;5036398;28;20185;-78
2021/08/06 08:06:58;;;;;;;18.58;1.80;;;;;;;28.21;38.54;95853.34;5031571;28;20500;-76
2021/08/06 08:09:23;;;;;;;7.50;0.85;;;;;;;28.20;38.55;95856.09;5032202;28;20029;-78
2021/08/06 08:11:49;;;;;;;5.57;1.02;;;;;;;28.13;38.37;95856.56;5032017;28;20032;-79
2021/08/06 08:14:14;;;;;;;1.60;0.65;;;;;;;28.10;38.57;95862.06;5028036;28;20036;-78
2021/08/06 08:16:40;;;;;;;1.00;0.60;;;;;;;28.05;38.69;95864.22;5037043;28;20148;-78
2021/08/06 08:19:08;;;;;;;1.05;0.65;;;;;;;28.01;38.57;95857.50;5037251;28;20509;-78
2021/08/06 08:21:33;;;;;;;2.38;0.50;;;;;;;27.95;38.71;95853.56;5050851;28;20028;-78
2021/08/06 08:23:59;;;;;;;5.15;0.63;;;;;;;27.92;38.35;95864.34;5035187;28;20086;-78
2021/08/06 08:26:24;;;;;;;1.55;0.50;;;;;;;27.84;38.19;95859.66;5046968;28;20050;-76
2021/08/06 08:28:49;;;;;;;1.40;0.50;;;;;;;27.81;38.01;95861.69;5031625;28;20024;-76
2021/08/06 08:31:17;;;;;;;1.65;0.57;;;;;;;27.75;37.85;95852.44;5057998;28;20036;-78
2021/08/06 08:33:42;;;;;;;0.65;0.40;;;;;;;27.71;37.82;95856.28;5031706;28;20501;-77
2021/08/06 08:36:08;;;;;;;2.85;0.50;;;;;;;27.67;37.61;95862.72;5026730;28;20035;-78
2021/08/06 08:38:33;;;;;;;2.10;0.40;;;;;;;27.65;37.74;95866.31;5035529;28;20070;-76
2021/08/06 08:40:59;;;;;;;1.05;0.50;;;;;;;27.60;37.61;95863.16;5041202;28;20028;-77
2021/08/06 08:43:25;;;;;;;0.90;0.35;;;;;;;27.58;37.66;95867.69;5034868;28;20036;-76
2021/08/06 08:45:50;;;;;;;3.30;0.60;;;;;;;27.57;37.98;95865.19;5026909;28;20025;-79
2021/08/06 08:48:18;;;;;;;0.75;0.30;;;;;;;27.58;37.88;95861.59;5055339;28;20275;-78
2021/08/06 08:50:43;;;;;;;1.77;0.60;;;;;;;27.60;37.96;95870.22;5037069;28;20833;-78
2021/08/06 08:53:09;;;;;;;2.80;0.65;;;;;;;27.63;37.91;95870.88;5037850;28;20344;-77
2021/08/06 08:55:37;;;;;;;1.88;0.60;;;;;;;27.65;37.67;95866.31;5040773;28;20051;-76
2021/08/06 08:58:02;;;;;;;3.15;1.08;;;;;;;27.70;38.03;95880.91;5037114;28;20513;-77
2021/08/06 09:00:28;;;;;;;7.55;1.52;;;;;;;27.74;37.85;95871.84;5059450;28;20324;-77
2021/08/06 09:02:53;;;;;;;7.00;1.50;;;;;;;27.78;37.86;95875.91;5047864;28;20036;-74
2021/08/06 09:05:20;;;;;;;7.75;1.30;;;;;;;27.81;37.89;95873.06;5043568;28;20035;-77
2021/08/06 09:07:46;;;;;;;8.80;1.50;;;;;;;27.85;37.89;95876.28;5062510;28;20088;-76
2021/08/06 09:10:20;;;;;;;7.63;1.73;;;;;;;27.87;37.85;95874.38;5056702;28;20032;-75
2021/08/06 09:12:46;;;;;;;7.63;1.80;;;;;;;27.89;37.86;95875.91;5061600;28;20111;-74
2021/08/06 09:15:12;;;;;;;7.72;1.80;;;;;;;27.91;37.75;95874.03;5040542;28;20538;-75
2021/08/06 09:17:37;;;;;;;17.15;2.17;;;;;;;27.95;37.90;95868.53;5039121;28;20028;-76
2021/08/06 09:20:07;;;;;;;7.40;1.95;;;;;;;27.98;37.83;95878.81;5052481;28;20036;-73
2021/08/06 09:22:32;;;;;;;4.30;1.90;;;;;;;27.99;37.77;95886.59;5044089;28;20376;-75
2021/08/06 09:25:17;;;;;;;5.95;1.70;;;;;;;28.02;37.99;95874.97;5045220;28;20115;-74
2021/08/06 09:27:47;;;;;;;7.35;2.15;;;;;;;28.04;37.65;95884.44;5061301;28;20032;-75
2021/08/06 09:30:14;;;;;;;7.07;2.03;;;;;;;28.05;37.64;95890.56;5025873;28;20025;-74
2021/08/06 09:32:54;;;;;;;9.13;2.10;;;;;;;28.07;37.72;95888.63;5026552;28;20024;-74
2021/08/06 09:35:22;;;;;;;6.90;2.15;;;;;;;28.09;37.77;95886.75;5063998;28;20494;-74
2021/08/06 09:37:47;;;;;;;5.65;1.67;;;;;;;28.08;37.68;95882.44;5060100;28;20115;-74
2021/08/06 09:40:14;;;;;;;4.85;1.50;;;;;;;28.11;37.74;95892.72;5038090;28;21285;-73
2021/08/06 09:42:56;;;;;;;4.78;1.92;;;;;;;28.14;37.71;95899.53;5057055;28;20058;-74
2021/08/06 09:45:23;;;;;;;6.82;1.60;;;;;;;28.15;37.74;95898.59;5062790;28;20379;-74
2021/08/06 09:47:56;;;;;;;6.25;1.80;;;;;;;28.16;37.45;95901.13;5040999;28;20036;-74
2021/08/06 09:50:23;;;;;;;4.75;1.83;;;;;;;28.18;37.66;95896.56;5057741;28;20035;-73
2021/08/06 09:52:51;;;;;;;6.45;1.73;;;;;;;28.17;37.71;95900.16;5056587;28;20033;-75
2021/08/06 09:55:20;;;;;;;5.70;1.55;;;;;;;28.20;37.70;95893.81;5055691;28;20119;-74
2021/08/06 09:57:46;;;;;;;4.72;1.45;;;;;;;28.20;37.40;95887.69;5055904;28;20028;-74
2021/08/06 10:00:15;;;;;;;5.70;1.60;;;;;;;28.22;37.83;95897.16;5053547;28;20138;-74
2021/08/06 10:02:42;;;;;;;3.72;1.23;;;;;;;28.23;37.68;95900.63;5045932;28;20028;-74
2021/08/06 10:05:09;;;;;;;4.65;1.27;;;;;;;28.25;37.61;95899.59;5044388;28;20028;-74
2021/08/06 10:07:46;;;;;;;2.38;1.00;;;;;;;28.25;37.50;95902.22;5043623;28;20032;-74
2021/08/06 10:10:15;;;;;;;4.68;1.38;;;;;;;28.28;37.38;95901.13;5040948;28;20089;-73
2021/08/06 10:12:41;;;;;;;3.42;1.10;;;;;;;28.28;37.39;95906.41;5063294;28;20357;-74
2021/08/06 10:15:07;;;;;;;4.65;1.23;;;;;;;28.28;37.38;95903.78;5030948;28;20613;-75
2021/08/06 10:17:33;;;;;;;3.10;1.40;;;;;;;28.30;37.46;95907.97;5036047;28;20036;-74
2021/08/06 10:19:58;;;;;;;3.78;1.30;;;;;;;28.30;37.49;95904.50;5052322;28;20067;-74
2021/08/06 10:22:24;;;;;;;3.00;1.23;;;;;;;28.34;37.17;95907.75;5060441;28;20043;-74
2021/08/06 10:24:51;;;;;;;3.20;1.27;;;;;;;28.34;37.56;95911.19;5036698;28;20119;-73
2021/08/06 10:27:37;;;;;;;2.30;0.95;;;;;;;28.32;37.31;95907.00;5057843;28;20059;-73
2021/08/06 10:30:07;;;;;;;4.25;1.27;;;;;;;28.37;37.48;95912.78;5021726;28;20335;-71
2021/08/06 10:32:32;;;;;;;3.88;1.17;;;;;;;28.36;37.36;95909.28;5051634;28;20131;-74
2021/08/06 10:35:50;;;;;;;2.53;1.00;;;;;;;28.36;37.36;95919.84;5050503;28;20036;-72
2021/08/06 10:38:31;;;;;;;3.47;1.20;;;;;;;28.36;37.26;95914.56;5020431;28;20086;-72
2021/08/06 10:40:56;;;;;;;3.88;1.33;;;;;;;28.35;36.58;95912.03;5055617;28;20079;-69
2021/08/06 10:43:43;;;;;;;2.20;1.10;;;;;;;28.34;36.39;95916.47;5039766;28;20036;-71
2021/08/06 10:46:08;;;;;;;5.10;1.00;;;;;;;28.31;36.29;95911.44;5053746;28;20119;-75
2021/08/06 10:48:35;;;;;;;1.92;1.10;;;;;;;28.29;35.97;95910.72;5025986;28;20426;-73
2021/08/06 10:51:17;;;;;;;3.67;0.93;;;;;;;28.27;35.71;95916.09;5017299;28;20074;-77
2021/08/06 10:53:45;;;;;;;;;;;;;;;28.25;35.77;95896.94;5058235;28;20086;-77
2021/08/06 10:56:17;;;;;;;3.50;0.93;;;;;;;28.26;35.84;95908.34;5053870;28;19928;-76
2021/08/06 10:58:57;;;;;;;1.25;0.68;;;;;;;28.25;35.90;95909.25;5054877;28;20028;-77
2021/08/06 11:01:25;;;;;;;3.20;0.93;;;;;;;28.24;36.10;95899.66;5055275;28;20175;-78
2021/08/06 11:03:56;;;;;;;4.95;0.90;;;;;;;28.23;35.85;95908.53;5059782;28;20066;-77
2021/08/06 11:06:53;;;;;;;6.65;1.33;;;;;;;28.24;35.71;95892.63;5038376;28;20032;-77
2021/08/06 11:10:41;;;;;;;3.58;1.15;;;;;;;-148.56;100.00;61375.16;5060719;28;20028;-77
2021/08/06 11:13:30;;;;;;;10.20;1.08;;;;;;;28.24;35.71;95892.63;5058376;28;20021;-78
2021/08/06 11:16:06;;;;;;;2.30;0.90;;;;;;;28.24;35.13;95894.41;5073150;28;20032;-78
2021/08/06 11:18:32;;;;;;;4.90;0.98;;;;;;;28.23;35.16;95893.59;5023593;28;20072;-78
2021/08/06 11:20:58;;;;;;;5.50;1.02;;;;;;;28.23;34.87;95893.59;5026746;28;20134;-78
2021/08/06 11:23:24;;;;;;;4.13;1.42;;;;;;;28.21;35.10;95905.16;5042957;28;20028;-78
2021/08/06 11:25:51;;;;;;;3.22;0.90;;;;;;;28.20;34.94;95903.50;5042023;28;20024;-79
2021/08/06 11:28:24;;;;;;;4.22;0.95;;;;;;;28.21;35.11;95894.63;5042208;28;20051;-79
2021/08/06 11:31:57;;;;;;;1.63;0.88;;;;;;;-148.56;100.00;61375.16;5041038;28;20033;-76
2021/08/06 11:34:23;;;;;;;3.13;1.20;;;;;;;28.19;34.64;95889.50;5049925;28;20021;-77
2021/08/06 11:36:58;;;;;;;2.78;1.15;;;;;;;28.19;34.64;95889.50;5024316;28;20110;-75
2021/08/06 11:39:24;;;;;;;4.53;0.90;;;;;;;28.17;34.91;95894.88;5042794;28;20058;-77
2021/08/06 11:41:50;;;;;;;4.07;0.75;;;;;;;28.16;34.71;95890.59;5038028;28;20025;-77
2021/08/06 11:44:16;;;;;;;3.25;1.20;;;;;;;28.14;34.10;95897.75;5018303;28;20051;-76